Time;durP1;ratioP1;P1;durP2;ratioP2;P2;SDS_P1;SDS_P2;PMS_P1;PMS_P2;Temp;Humidity;BMP_temperature;BMP_pressure;BME280_temperature;BME280_humidity;BME280_pressure;Samples;Min_cycle;Max_cycle;Signal;HPM_P1;HPM_P2
2023/04/04 00:02:05;;;;;;;7.47;3.40;;;0.70;99.90;;;;;;4953399;28;20130;-82
2023/04/04 00:04:30;;;;;;;6.85;3.53;;;0.70;99.90;;;;;;4953391;28;20668;-82
2023/04/04 00:06:56;;;;;;;8.20;3.13;;;1.10;99.90;;;;;;4952233;28;20048;-82
2023/04/04 00:09:22;;;;;;;8.13;3.60;;;1.20;99.90;;;;;;4953200;28;20446;-82
2023/04/04 00:11:48;;;;;;;8.88;3.95;;;0.60;99.90;;;;;;4953333;28;20491;-82
2023/04/04 00:14:13;;;;;;;7.78;4.30;;;0.90;99.90;;;;;;4952789;28;20042;-81
2023/04/04 00:16:39;;;;;;;10.98;4.20;;;1.10;99.90;;;;;;4937012;28;20050;-82
2023/04/04 00:19:05;;;;;;;6.82;3.20;;;0.50;99.90;;;;;;4953228;28;20479;-82
2023/04/04 00:21:31;;;;;;;9.95;3.90;;;1.40;99.90;;;;;;4951709;28;20061;-82
2023/04/04 00:23:57;;;;;;;8.80;4.43;;;0.40;99.90;;;;;;4937980;28;20038;-81
2023/04/04 00:26:23;;;;;;;10.23;4.70;;;0.40;99.90;;;;;;4935886;28;20054;-82
2023/04/04 00:28:49;;;;;;;14.48;4.85;;;0.40;99.90;;;;;;4952157;28;20126;-82
2023/04/04 00:31:15;;;;;;;8.20;4.13;;;0.60;99.90;;;;;;4952698;28;20125;-82
2023/04/04 00:33:40;;;;;;;7.60;3.83;;;0.70;99.90;;;;;;4952642;28;20058;-81
2023/04/04 00:36:06;;;;;;;9.88;4.47;;;0.50;99.90;;;;;;4951376;28;20059;-82
2023/04/04 00:38:32;;;;;;;11.73;5.13;;;0.40;99.90;;;;;;4953058;28;20167;-82
2023/04/04 00:40:58;;;;;;;10.85;4.30;;;0.60;99.90;;;;;;4952668;28;20058;-81
2023/04/04 00:43:26;;;;;;;8.77;4.15;;;0.90;99.90;;;;;;4952170;28;20439;-82
2023/04/04 00:45:51;;;;;;;11.90;4.30;;;1.40;99.90;;;;;;4952192;28;20335;-82
2023/04/04 00:48:17;;;;;;;8.02;3.85;;;1.30;99.90;;;;;;4936899;28;20082;-82
2023/04/04 00:50:43;;;;;;;10.18;3.70;;;0.40;99.90;;;;;;4950992;28;20612;-81
2023/04/04 00:53:09;;;;;;;7.80;3.33;;;0.30;99.90;;;;;;4936973;28;20137;-82
2023/04/04 00:55:38;;;;;;;6.88;3.25;;;0.60;99.90;;;;;;4952300;28;20757;-81
2023/04/04 00:58:04;;;;;;;7.57;3.85;;;0.20;99.90;;;;;;4935547;28;20410;-82
2023/04/04 01:00:34;;;;;;;11.25;4.45;;;0.10;99.90;;;;;;4952428;28;20142;-82
2023/04/04 01:03:00;;;;;;;11.55;4.65;;;0.70;99.90;;;;;;4935633;28;20499;-81
2023/04/04 01:05:25;;;;;;;7.95;4.57;;;0.00;99.90;;;;;;4935782;28;20043;-81
2023/04/04 01:07:51;;;;;;;9.77;4.15;;;0.70;99.90;;;;;;4951779;28;20050;-81
2023/04/04 01:10:17;;;;;;;11.75;5.03;;;0.00;99.90;;;;;;4951381;28;20051;-81
2023/04/04 01:12:43;;;;;;;14.15;4.88;;;0.00;99.90;;;;;;4952275;28;20046;-81
2023/04/04 01:15:09;;;;;;;11.35;5.82;;;0.70;99.90;;;;;;4951537;28;20138;-81
2023/04/04 01:17:36;;;;;;;14.13;5.75;;;0.00;99.90;;;;;;4935673;28;20045;-81
2023/04/04 01:20:06;;;;;;;11.25;5.43;;;0.00;99.90;;;;;;4935802;28;20098;-81
2023/04/04 01:22:33;;;;;;;9.95;5.25;;;0.00;99.90;;;;;;4935351;28;20491;-81
2023/04/04 01:25:01;;;;;;;10.05;4.70;;;0.90;99.90;;;;;;4951222;28;20051;-81
2023/04/04 01:27:26;;;;;;;6.97;3.97;;;0.40;99.90;;;;;;4944180;28;20061;-81
2023/04/04 01:29:52;;;;;;;5.18;3.20;;;-0.10;99.90;;;;;;4952208;28;20550;-81
2023/04/04 01:32:21;;;;;;;6.10;2.90;;;-0.10;99.90;;;;;;4934616;28;20038;-81
2023/04/04 01:35:00;;;;;;;6.88;3.60;;;0.20;99.90;;;;;;4936024;28;20051;-81
2023/04/04 01:37:39;;;;;;;9.73;4.85;;;-0.30;99.90;;;;;;4935324;28;20050;-81
2023/04/04 01:40:11;;;;;;;11.15;5.13;;;-0.30;99.90;;;;;;4951410;28;20077;-80
2023/04/04 01:42:37;;;;;;;8.60;4.88;;;-0.30;99.90;;;;;;4951364;28;20491;-81
2023/04/04 01:45:06;;;;;;;13.57;5.00;;;0.50;99.90;;;;;;4951175;28;20051;-81
2023/04/04 01:47:40;;;;;;;10.80;6.03;;;-0.30;99.90;;;;;;4935321;28;20189;-81
2023/04/04 01:50:07;;;;;;;11.45;5.60;;;-0.40;99.90;;;;;;4951740;28;20046;-80
2023/04/04 01:52:33;;;;;;;16.17;5.18;;;-0.40;99.90;;;;;;4949719;28;20043;-81
2023/04/04 01:54:59;;;;;;;8.88;5.40;;;0.40;99.90;;;;;;4935892;28;20047;-80
2023/04/04 01:57:25;;;;;;;16.35;5.57;;;0.30;99.90;;;;;;4950878;28;20050;-80
2023/04/04 01:59:50;;;;;;;9.57;5.22;;;0.30;99.90;;;;;;4934793;28;20050;-80
2023/04/04 02:02:16;;;;;;;11.73;5.57;;;-0.50;99.90;;;;;;4951162;28;20049;-80
2023/04/04 02:04:42;;;;;;;11.90;5.60;;;-0.60;99.90;;;;;;4935168;28;20047;-80
2023/04/04 02:07:07;;;;;;;8.80;5.05;;;-0.50;99.90;;;;;;4949859;28;20124;-80
2023/04/04 02:09:33;;;;;;;9.90;5.57;;;-0.60;99.90;;;;;;4950881;28;20605;-80
2023/04/04 02:11:59;;;;;;;12.65;5.65;;;-0.30;99.90;;;;;;4951397;28;20364;-80
2023/04/04 02:14:25;;;;;;;13.43;5.70;;;-0.40;99.90;;;;;;4951063;28;20058;-80
2023/04/04 02:16:51;;;;;;;11.82;5.75;;;-0.60;99.90;;;;;;4968060;28;20247;-80
2023/04/04 02:19:17;;;;;;;10.88;5.10;;;-0.60;99.90;;;;;;4935524;28;20101;-80
2023/04/04 02:21:43;;;;;;;12.38;5.47;;;-0.70;99.90;;;;;;4949182;28;20399;-80
2023/04/04 02:24:09;;;;;;;9.88;5.28;;;-0.70;99.90;;;;;;4935310;28;20051;-80
2023/04/04 02:26:35;;;;;;;12.88;5.50;;;-0.70;99.90;;;;;;4950562;28;20549;-80
2023/04/04 02:29:01;;;;;;;10.10;4.78;;;-0.70;99.90;;;;;;4967675;28;20046;-80
2023/04/04 02:31:27;;;;;;;10.95;4.75;;;-0.30;99.90;;;;;;4934947;28;20710;-80
2023/04/04 02:33:53;;;;;;;11.77;5.22;;;-0.70;99.90;;;;;;4950988;28;20046;-80
2023/04/04 02:36:19;;;;;;;8.25;4.85;;;-0.70;99.90;;;;;;4949332;28;20434;-80
2023/04/04 02:38:44;;;;;;;9.20;4.53;;;-0.60;99.90;;;;;;4951074;28;20073;-80
2023/04/04 02:41:10;;;;;;;7.28;3.95;;;-0.40;99.90;;;;;;4950157;28;20476;-80
2023/04/04 02:43:36;;;;;;;11.43;4.18;;;-0.80;99.90;;;;;;4934349;28;20053;-80
2023/04/04 02:46:01;;;;;;;16.75;4.45;;;-0.80;99.90;;;;;;4950428;28;20038;-81
2023/04/04 02:48:27;;;;;;;11.95;4.65;;;-0.10;99.90;;;;;;4950537;28;20097;-81
2023/04/04 02:50:53;;;;;;;8.32;3.78;;;0.50;99.90;;;;;;4949761;28;20046;-80
2023/04/04 02:53:19;;;;;;;8.18;3.70;;;-0.80;99.90;;;;;;4950476;28;20070;-80
2023/04/04 02:55:45;;;;;;;13.63;3.80;;;-0.70;99.90;;;;;;4949969;28;20050;-80
2023/04/04 02:58:11;;;;;;;8.13;3.58;;;-0.80;99.90;;;;;;4950362;28;20428;-80
2023/04/04 03:00:36;;;;;;;11.48;3.88;;;-0.80;99.90;;;;;;4950535;28;20053;-80
2023/04/04 03:03:02;;;;;;;9.52;3.83;;;-0.80;99.90;;;;;;4933975;28;20049;-80
2023/04/04 03:05:29;;;;;;;7.25;3.58;;;-0.90;99.90;;;;;;4949843;28;20047;-80
2023/04/04 03:07:56;;;;;;;11.07;3.58;;;0.00;99.90;;;;;;4950745;28;20047;-80
2023/04/04 03:10:23;;;;;;;8.48;3.45;;;-0.40;99.90;;;;;;4932994;28;20134;-80
2023/04/04 03:12:50;;;;;;;7.43;3.67;;;-0.30;99.90;;;;;;4950974;28;20424;-80
2023/04/04 03:15:16;;;;;;;9.40;3.78;;;-0.90;99.90;;;;;;4934319;28;20053;-80
2023/04/04 03:17:41;;;;;;;9.75;3.97;;;-0.60;99.90;;;;;;4949737;28;20045;-80
2023/04/04 03:20:09;;;;;;;8.02;3.40;;;0.10;99.90;;;;;;4950400;28;20134;-80
2023/04/04 03:22:35;;;;;;;7.15;3.35;;;-0.90;99.90;;;;;;4949053;28;20507;-80
2023/04/04 03:25:01;;;;;;;6.18;3.40;;;-0.80;99.90;;;;;;4966923;28;20042;-80
2023/04/04 03:27:26;;;;;;;6.93;3.30;;;-0.30;99.90;;;;;;4925983;28;20047;-80
2023/04/04 03:29:52;;;;;;;12.40;3.97;;;-1.00;99.90;;;;;;4935998;28;20451;-80
2023/04/04 03:32:18;;;;;;;10.77;3.85;;;-1.00;99.90;;;;;;4953474;28;20049;-80
2023/04/04 03:34:44;;;;;;;7.78;3.35;;;-0.30;99.90;;;;;;4953989;28;20522;-80
2023/04/04 03:37:10;;;;;;;7.03;3.22;;;-0.40;99.90;;;;;;4953466;28;20553;-80
2023/04/04 03:39:35;;;;;;;7.13;3.45;;;-1.20;99.90;;;;;;4936856;28;20046;-80
2023/04/04 03:42:01;;;;;;;7.15;3.35;;;-0.30;99.90;;;;;;4953773;28;20046;-80
2023/04/04 03:44:27;;;;;;;8.43;3.50;;;-1.00;99.90;;;;;;4938150;28;20053;-80
2023/04/04 03:46:52;;;;;;;9.25;3.17;;;-1.20;99.90;;;;;;4952614;28;20050;-80
2023/04/04 03:49:18;;;;;;;8.50;3.13;;;-1.20;99.90;;;;;;4938132;28;20050;-80
2023/04/04 03:51:44;;;;;;;7.15;2.75;;;-0.40;99.90;;;;;;4951822;28;20038;-80
2023/04/04 03:54:09;;;;;;;11.98;3.65;;;-0.30;99.90;;;;;;4953638;28;20051;-81
2023/04/04 03:56:35;;;;;;;8.85;3.40;;;-1.20;99.90;;;;;;4953922;28;20068;-81
2023/04/04 03:59:01;;;;;;;6.28;2.90;;;-1.20;99.90;;;;;;4952704;28;20466;-80
2023/04/04 04:01:26;;;;;;;8.88;3.45;;;-0.90;99.90;;;;;;4953605;28;20499;-81
2023/04/04 04:03:52;;;;;;;6.85;3.00;;;-1.20;99.90;;;;;;4937694;28;20039;-81
2023/04/04 04:06:18;;;;;;;7.53;3.25;;;-1.20;99.90;;;;;;4935971;28;20050;-81
2023/04/04 04:08:44;;;;;;;6.85;3.10;;;-1.20;99.90;;;;;;4953740;28;20142;-81
2023/04/04 04:11:09;;;;;;;8.43;3.90;;;-1.20;99.90;;;;;;4952539;28;20138;-80
2023/04/04 04:13:36;;;;;;;10.93;3.85;;;-1.20;99.90;;;;;;4936735;28;20047;-80
2023/04/04 04:16:02;;;;;;;8.70;4.20;;;-1.20;99.90;;;;;;4968453;28;20046;-80
2023/04/04 04:18:28;;;;;;;11.20;3.75;;;-1.20;99.90;;;;;;4951351;28;20043;-80
2023/04/04 04:20:58;;;;;;;6.72;3.70;;;-1.20;99.90;;;;;;4950402;28;20141;-80
2023/04/04 04:23:24;;;;;;;9.95;4.13;;;-0.80;99.90;;;;;;4953414;28;20034;-80
2023/04/04 04:25:50;;;;;;;8.98;3.33;;;-1.20;99.90;;;;;;4953157;28;20058;-81
2023/04/04 04:28:15;;;;;;;8.63;3.53;;;-0.40;99.90;;;;;;4951916;28;20046;-81
2023/04/04 04:30:41;;;;;;;12.88;4.53;;;-0.30;99.90;;;;;;4952855;28;20051;-81
2023/04/04 04:33:07;;;;;;;8.32;3.95;;;-1.10;99.90;;;;;;4953303;28;20125;-80
2023/04/04 04:35:36;;;;;;;6.05;3.42;;;-1.10;99.90;;;;;;4950821;28;20041;-80
2023/04/04 04:38:02;;;;;;;7.78;2.85;;;-1.10;99.90;;;;;;4953274;28;20105;-80
2023/04/04 04:40:28;;;;;;;5.85;3.30;;;-1.10;99.90;;;;;;4951881;28;20460;-80
2023/04/04 04:42:53;;;;;;;6.38;3.15;;;-1.20;99.90;;;;;;4935816;28;20034;-81
2023/04/04 04:45:19;;;;;;;9.43;3.67;;;-1.20;99.90;;;;;;4952558;28;20053;-81
2023/04/04 04:47:46;;;;;;;7.25;3.10;;;-0.60;99.90;;;;;;4936820;28;20051;-81
2023/04/04 04:50:12;;;;;;;8.15;3.72;;;-0.50;99.90;;;;;;4952210;28;20047;-81
2023/04/04 04:52:38;;;;;;;5.80;3.30;;;-0.90;99.90;;;;;;4951485;28;20403;-81
2023/04/04 04:55:04;;;;;;;9.57;3.78;;;-0.90;99.90;;;;;;4970066;28;20138;-81
2023/04/04 04:57:32;;;;;;;8.45;3.60;;;-1.30;99.90;;;;;;4952586;28;20122;-81
2023/04/04 04:59:59;;;;;;;7.90;3.70;;;-0.90;99.90;;;;;;4953005;28;20128;-81
2023/04/04 05:02:24;;;;;;;6.28;3.22;;;-1.40;99.90;;;;;;4950979;28;20524;-81
2023/04/04 05:04:50;;;;;;;11.25;3.38;;;-1.30;99.90;;;;;;4952609;28;20047;-81
2023/04/04 05:07:16;;;;;;;7.93;3.25;;;-1.40;99.90;;;;;;4951613;28;20515;-81
2023/04/04 05:09:43;;;;;;;9.10;4.10;;;-1.30;99.90;;;;;;4951645;28;20059;-81
2023/04/04 05:12:08;;;;;;;22.67;4.20;;;-1.30;99.90;;;;;;4952289;28;20063;-81
2023/04/04 05:14:34;;;;;;;8.52;3.85;;;-0.70;99.90;;;;;;4936297;28;20514;-81
2023/04/04 05:17:00;;;;;;;12.18;4.28;;;-1.30;99.90;;;;;;4935495;28;20038;-81
2023/04/04 05:19:26;;;;;;;13.35;4.13;;;-1.30;99.90;;;;;;4953382;28;20050;-81
2023/04/04 05:21:53;;;;;;;16.98;4.38;;;-1.30;99.90;;;;;;4950787;28;20126;-81
2023/04/04 05:24:19;;;;;;;10.02;4.13;;;-1.20;99.90;;;;;;4969466;28;20399;-81
2023/04/04 05:26:45;;;;;;;10.65;4.60;;;-1.20;99.90;;;;;;4951728;28;20051;-81
2023/04/04 05:29:11;;;;;;;10.70;4.20;;;-1.10;99.90;;;;;;4952776;28;20130;-81
2023/04/04 05:31:37;;;;;;;10.20;4.03;;;-0.30;99.90;;;;;;4951025;28;20523;-81
2023/04/04 05:34:07;;;;;;;10.90;4.38;;;-1.00;99.90;;;;;;4935994;28;20043;-81
2023/04/04 05:36:34;;;;;;;13.73;4.60;;;-0.20;99.90;;;;;;4950986;28;20043;-81
2023/04/04 05:39:00;;;;;;;7.80;3.90;;;-0.20;99.90;;;;;;4926968;28;20047;-81
2023/04/04 05:41:26;;;;;;;20.83;5.22;;;-0.70;99.90;;;;;;4940866;28;20047;-81
2023/04/04 05:43:52;;;;;;;15.48;4.40;;;0.10;99.90;;;;;;4920137;29;20638;-81
2023/04/04 05:46:17;;;;;;;14.27;4.30;;;-0.70;99.90;;;;;;4950680;28;20046;-81
2023/04/04 05:48:43;;;;;;;17.23;4.97;;;-0.70;99.90;;;;;;4949148;28;20038;-81
2023/04/04 05:51:09;;;;;;;10.48;4.78;;;-0.50;99.90;;;;;;4934624;28;20058;-81
2023/04/04 05:53:34;;;;;;;14.20;4.50;;;0.40;99.90;;;;;;4950893;28;20169;-81
2023/04/04 05:56:01;;;;;;;10.90;4.65;;;-0.70;99.90;;;;;;4935298;28;20042;-81
2023/04/04 05:58:26;;;;;;;14.98;4.88;;;-0.70;99.90;;;;;;4951404;28;20055;-81
2023/04/04 06:00:52;;;;;;;12.45;4.80;;;-0.10;99.90;;;;;;4934843;28;20047;-81
2023/04/04 06:03:18;;;;;;;8.93;4.25;;;-0.70;99.90;;;;;;4935226;28;20074;-81
2023/04/04 06:05:43;;;;;;;15.05;3.75;;;-0.60;99.90;;;;;;4944675;28;20062;-81
2023/04/04 06:08:10;;;;;;;11.40;3.75;;;-0.60;99.90;;;;;;4928356;28;20409;-81
2023/04/04 06:10:35;;;;;;;10.75;3.78;;;-0.20;99.90;;;;;;4934919;28;20046;-81
2023/04/04 06:13:01;;;;;;;8.63;4.10;;;0.20;99.90;;;;;;4950690;28;20051;-81
2023/04/04 06:15:27;;;;;;;11.63;4.55;;;-0.20;99.90;;;;;;4933636;28;20038;-81
2023/04/04 06:17:52;;;;;;;9.18;3.78;;;0.20;99.90;;;;;;4949139;28;20094;-81
2023/04/04 06:20:20;;;;;;;10.43;3.88;;;0.00;99.90;;;;;;4937447;28;20067;-81
2023/04/04 06:22:45;;;;;;;16.77;4.50;;;0.10;99.90;;;;;;4944025;28;20050;-81
2023/04/04 06:25:13;;;;;;;11.85;4.05;;;0.20;99.90;;;;;;4940811;28;20569;-81
2023/04/04 06:27:39;;;;;;;11.35;4.30;;;0.30;99.90;;;;;;4918798;28;20098;-81
2023/04/04 06:30:05;;;;;;;12.02;4.10;;;0.40;99.90;;;;;;4941900;28;20038;-81
2023/04/04 06:32:32;;;;;;;10.93;4.20;;;0.50;99.90;;;;;;4950611;28;20158;-81
2023/04/04 06:34:58;;;;;;;13.48;4.30;;;0.90;99.90;;;;;;4950884;28;20034;-81
2023/04/04 06:37:24;;;;;;;11.73;4.28;;;1.90;99.90;;;;;;4928593;29;20448;-82
2023/04/04 06:39:49;;;;;;;10.35;4.78;;;0.80;99.90;;;;;;4937779;28;20049;-82
2023/04/04 06:42:15;;;;;;;8.18;4.20;;;1.10;99.90;;;;;;4929012;29;20043;-82
2023/04/04 06:44:41;;;;;;;10.23;3.97;;;0.90;99.90;;;;;;4929831;28;20443;-84
2023/04/04 06:47:07;;;;;;;8.45;3.80;;;1.20;99.90;;;;;;4929838;29;20043;-85
2023/04/04 06:49:32;;;;;;;9.68;3.60;;;1.10;99.90;;;;;;4932794;28;20047;-85
2023/04/04 06:51:59;;;;;;;10.00;4.10;;;1.10;99.90;;;;;;4930619;28;20411;-86
2023/04/04 06:54:25;;;;;;;10.43;4.03;;;1.20;99.90;;;;;;4934892;28;20055;-85
2023/04/04 06:56:51;;;;;;;10.32;3.92;;;1.30;99.90;;;;;;4933815;28;20657;-84
2023/04/04 06:59:17;;;;;;;9.35;3.72;;;1.40;99.90;;;;;;4950701;28;20077;-87
2023/04/04 07:01:46;;;;;;;9.88;3.70;;;1.40;99.90;;;;;;4935050;28;20058;-86
2023/04/04 07:04:12;;;;;;;8.80;3.47;;;2.00;99.90;;;;;;4935630;28;20053;-84
2023/04/04 07:06:37;;;;;;;10.20;2.80;;;2.80;99.90;;;;;;4937847;28;20442;-86
2023/04/04 07:09:03;;;;;;;7.88;2.97;;;1.70;99.90;;;;;;4937089;28;20047;-85
2023/04/04 07:11:29;;;;;;;7.75;3.08;;;2.40;99.90;;;;;;4954781;28;20121;-85
2023/04/04 07:13:55;;;;;;;15.05;3.30;;;1.80;99.90;;;;;;4938398;28;20062;-84
2023/04/04 07:16:21;;;;;;;9.48;3.38;;;2.50;99.90;;;;;;4935374;28;20082;-85
2023/04/04 07:18:47;;;;;;;10.65;3.10;;;3.00;99.90;;;;;;4938639;28;20039;-85
2023/04/04 07:21:13;;;;;;;6.63;2.75;;;2.10;99.90;;;;;;4953331;28;20053;-85
2023/04/04 07:23:38;;;;;;;6.10;2.42;;;3.00;99.90;;;;;;4953723;28;20351;-84
2023/04/04 07:26:04;;;;;;;9.00;2.58;;;3.00;99.90;;;;;;4937896;28;20137;-85
2023/04/04 07:28:30;;;;;;;7.65;2.58;;;2.30;99.90;;;;;;4954522;28;20034;-84
2023/04/04 07:31:00;;;;;;;8.20;2.40;;;2.40;99.90;;;;;;4937534;28;20056;-85
2023/04/04 07:33:27;;;;;;;7.40;2.50;;;2.50;99.90;;;;;;4926873;28;20042;-85
2023/04/04 07:35:53;;;;;;;7.07;2.60;;;3.50;99.90;;;;;;4952969;28;20043;-85
2023/04/04 07:38:19;;;;;;;11.68;2.40;;;2.60;99.90;;;;;;4946124;28;20074;-87
2023/04/04 07:40:47;;;;;;;6.20;1.90;;;2.80;99.90;;;;;;4938074;28;20346;-85
2023/04/04 07:43:12;;;;;;;8.20;2.40;;;3.30;99.90;;;;;;4954105;28;20134;-84
2023/04/04 07:45:38;;;;;;;10.00;2.80;;;2.90;99.90;;;;;;4953416;28;20097;-85
2023/04/04 07:48:04;;;;;;;6.70;2.20;;;3.60;99.90;;;;;;4938414;28;20030;-86
2023/04/04 07:50:30;;;;;;;8.55;2.63;;;3.00;99.90;;;;;;4953817;28;20050;-85
2023/04/04 07:52:57;;;;;;;10.13;3.08;;;3.10;99.90;;;;;;4937993;28;20074;-85
2023/04/04 07:55:24;;;;;;;9.20;2.65;;;3.70;99.90;;;;;;4937907;28;20069;-85
2023/04/04 07:57:52;;;;;;;6.18;1.80;;;3.30;99.90;;;;;;4938000;28;20118;-85
2023/04/04 08:00:20;;;;;;;7.63;2.10;;;3.40;99.90;;;;;;4938127;28;20054;-86
2023/04/04 08:02:52;;;;;;;6.28;1.83;;;3.50;99.90;;;;;;4938493;28;20047;-86
2023/04/04 08:05:18;;;;;;;8.57;2.70;;;4.00;99.90;;;;;;4937364;28;20085;-85
2023/04/04 08:07:43;;;;;;;8.13;1.95;;;3.80;99.90;;;;;;4937763;28;20074;-86
2023/04/04 08:10:09;;;;;;;6.75;2.05;;;3.70;99.90;;;;;;4937700;28;20051;-86
2023/04/04 08:12:35;;;;;;;9.00;2.08;;;3.80;99.90;;;;;;4937492;28;20112;-85
2023/04/04 08:15:01;;;;;;;10.45;2.50;;;3.80;99.90;;;;;;4938023;28;20503;-86
2023/04/04 08:17:27;;;;;;;14.80;3.72;;;3.90;99.90;;;;;;4952252;28;20098;-84
2023/04/04 08:19:53;;;;;;;5.95;2.25;;;4.00;99.90;;;;;;4953177;28;20499;-85
2023/04/04 08:22:19;;;;;;;6.13;2.05;;;4.10;99.90;;;;;;4953019;28;20534;-85
2023/04/04 08:24:45;;;;;;;8.10;2.30;;;4.20;99.90;;;;;;4953822;28;20153;-85
2023/04/04 08:27:11;;;;;;;5.10;1.95;;;4.60;99.90;;;;;;4937226;28;20097;-85
2023/04/04 08:29:37;;;;;;;6.57;2.08;;;5.30;99.90;;;;;;4953293;28;20134;-85
2023/04/04 08:32:03;;;;;;;10.95;2.40;;;4.60;99.90;;;;;;4953290;28;20039;-84
2023/04/04 08:34:29;;;;;;;9.38;2.45;;;4.60;99.90;;;;;;4936475;28;20035;-85
2023/04/04 08:36:55;;;;;;;10.65;2.50;;;5.40;99.90;;;;;;4952714;28;20050;-85
2023/04/04 08:39:21;;;;;;;7.20;2.70;;;5.10;99.90;;;;;;4953152;28;20137;-85
2023/04/04 08:42:02;;;;;;;5.93;2.17;;;4.70;99.90;;;;;;4935987;28;20141;-86
2023/04/04 08:44:28;;;;;;;5.72;1.35;;;4.70;99.90;;;;;;4937272;28;20047;-86
2023/04/04 08:46:55;;;;;;;3.33;1.75;;;4.80;99.90;;;;;;4953939;28;20113;-86
2023/04/04 08:49:23;;;;;;;8.60;1.90;;;4.80;99.90;;;;;;4936314;28;20117;-86
2023/04/04 08:51:52;;;;;;;5.90;1.60;;;5.10;99.90;;;;;;4952382;28;20057;-86
2023/04/04 08:54:19;;;;;;;8.13;1.70;;;5.00;99.90;;;;;;4952244;28;20443;-86
2023/04/04 08:56:45;;;;;;;6.38;1.70;;;5.10;99.90;;;;;;4936909;28;20109;-86
2023/04/04 08:59:14;;;;;;;4.80;1.45;;;5.70;99.90;;;;;;4937116;28;20043;-86
2023/04/04 09:01:40;;;;;;;5.57;1.88;;;5.30;99.90;;;;;;4935795;28;20125;-85
2023/04/04 09:04:07;;;;;;;6.35;1.80;;;5.30;99.90;;;;;;4953324;28;20042;-86
2023/04/04 09:06:33;;;;;;;11.73;2.17;;;5.40;99.90;;;;;;4935757;28;20202;-85
2023/04/04 09:09:00;;;;;;;7.03;1.90;;;5.40;99.90;;;;;;4952189;28;20407;-85
2023/04/04 09:11:29;;;;;;;5.13;1.70;;;5.90;99.90;;;;;;4936601;28;20125;-86
2023/04/04 09:13:56;;;;;;;5.43;1.75;;;5.50;99.90;;;;;;4936527;28;20043;-85
2023/04/04 09:16:22;;;;;;;4.60;1.75;;;5.60;99.90;;;;;;4933410;28;20155;-86
2023/04/04 09:18:48;;;;;;;4.65;1.92;;;5.70;99.90;;;;;;4936777;28;20038;-85
2023/04/04 09:21:13;;;;;;;9.13;2.30;;;5.90;99.90;;;;;;4951352;28;20532;-85
2023/04/04 09:23:40;;;;;;;9.38;2.08;;;5.80;99.90;;;;;;4935742;28;20130;-86
2023/04/04 09:26:05;;;;;;;7.75;1.98;;;5.90;99.90;;;;;;4936532;28;20042;-85
2023/04/04 09:28:32;;;;;;;8.52;2.10;;;6.00;99.90;;;;;;4936309;28;20109;-85
2023/04/04 09:31:01;;;;;;;8.30;1.95;;;6.10;99.90;;;;;;4932814;28;20058;-86
2023/04/04 09:33:27;;;;;;;6.75;2.00;;;6.20;99.90;;;;;;4952045;28;20058;-86
2023/04/04 09:36:01;;;;;;;7.70;2.20;;;6.00;99.90;;;;;;4935454;28;20043;-86
2023/04/04 09:38:28;;;;;;;5.85;2.42;;;6.10;99.90;;;;;;4935280;28;20476;-86
2023/04/04 09:40:55;;;;;;;6.60;1.85;;;6.50;99.90;;;;;;4951872;28;20050;-86
2023/04/04 09:43:23;;;;;;;8.73;1.92;;;6.20;99.90;;;;;;4935580;28;20074;-86
2023/04/04 09:45:49;;;;;;;10.27;1.83;;;6.30;99.90;;;;;;4935585;28;20043;-85
2023/04/04 09:48:32;;;;;;;5.72;1.60;;;6.40;99.90;;;;;;4935878;28;20507;-85
2023/04/04 09:50:58;;;;;;;5.97;1.55;;;6.50;99.90;;;;;;4935010;28;20049;-85
2023/04/04 09:53:24;;;;;;;8.57;1.90;;;6.50;99.90;;;;;;4935667;28;20130;-85
2023/04/04 09:55:53;;;;;;;7.00;1.88;;;6.60;99.90;;;;;;4935859;28;20038;-85
2023/04/04 09:58:25;;;;;;;6.00;1.80;;;6.70;99.90;;;;;;4934899;28;20050;-85
2023/04/04 10:00:54;;;;;;;6.18;1.90;;;6.70;99.90;;;;;;4935505;28;20467;-85
2023/04/04 10:03:22;;;;;;;10.15;2.17;;;6.70;99.90;;;;;;4935916;28;20141;-85
2023/04/04 10:05:55;;;;;;;7.28;2.20;;;6.80;99.90;;;;;;4934136;28;20482;-85
2023/04/04 10:08:21;;;;;;;8.25;2.17;;;6.80;99.90;;;;;;4936786;28;20085;-85
2023/04/04 10:10:51;;;;;;;5.57;2.20;;;6.90;99.90;;;;;;4947751;28;20200;-86
2023/04/04 10:13:28;;;;;;;4.63;1.25;;;6.90;99.90;;;;;;4951221;28;20050;-85
2023/04/04 10:15:57;;;;;;;8.43;2.00;;;7.00;99.90;;;;;;4952161;28;20054;-85
2023/04/04 10:18:25;;;;;;;5.15;1.73;;;7.00;99.90;;;;;;4936077;28;20097;-86
2023/04/04 10:20:53;;;;;;;9.48;2.50;;;7.10;99.90;;;;;;4934458;28;20059;-85
2023/04/04 10:23:20;;;;;;;5.45;1.80;;;7.20;99.90;;;;;;4935451;28;20038;-85
2023/04/04 10:25:46;;;;;;;6.90;1.80;;;7.20;99.90;;;;;;4948303;28;20115;-86
2023/04/04 10:28:12;;;;;;;7.15;2.08;;;7.30;99.90;;;;;;4947843;28;20181;-85
2023/04/04 10:30:43;;;;;;;9.90;1.92;;;7.40;99.90;;;;;;4930736;29;20062;-87
2023/04/04 10:33:15;;;;;;;6.95;2.35;;;7.40;99.90;;;;;;4949909;28;20042;-86
2023/04/04 10:35:46;;;;;;;6.03;1.95;;;7.50;99.90;;;;;;4936896;29;20047;-86
2023/04/04 10:38:13;;;;;;;8.57;1.90;;;7.70;99.90;;;;;;4951678;28;20047;-85
2023/04/04 10:40:42;;;;;;;6.25;2.13;;;7.90;99.90;;;;;;4934324;28;20042;-84
2023/04/04 10:43:10;;;;;;;7.25;2.00;;;8.00;99.90;;;;;;4935745;28;20050;-85
2023/04/04 10:45:41;;;;;;;6.65;1.63;;;8.10;99.90;;;;;;4935088;28;20050;-85
2023/04/04 10:48:07;;;;;;;6.28;2.00;;;8.20;99.90;;;;;;4935480;28;20042;-85
2023/04/04 10:50:46;;;;;;;5.93;1.85;;;8.30;99.90;;;;;;4934589;28;20038;-86
2023/04/04 10:53:12;;;;;;;7.88;2.10;;;8.40;99.90;;;;;;4935210;28;20051;-85
2023/04/04 10:55:40;;;;;;;5.10;1.80;;;8.40;99.90;;;;;;4935062;28;20038;-86
2023/04/04 10:58:07;;;;;;;8.10;2.20;;;8.50;99.90;;;;;;4935672;28;20487;-85
2023/04/04 11:00:49;;;;;;;7.25;1.95;;;8.50;99.90;;;;;;4935080;28;20049;-85
2023/04/04 11:03:15;;;;;;;5.50;1.52;;;8.60;99.90;;;;;;4935705;28;20047;-85
2023/04/04 11:05:46;;;;;;;7.40;2.03;;;8.70;99.90;;;;;;4950653;28;20371;-85
2023/04/04 11:08:17;;;;;;;8.50;2.00;;;8.60;99.90;;;;;;4935276;28;20417;-85
2023/04/04 11:10:44;;;;;;;6.78;2.00;;;8.60;99.90;;;;;;4923126;28;20491;-86
2023/04/04 11:13:17;;;;;;;5.32;2.05;;;8.60;99.90;;;;;;4935612;28;20042;-85
2023/04/04 11:15:59;;;;;;;7.30;2.10;;;8.70;99.90;;;;;;4934448;28;20701;-85
2023/04/04 11:18:31;;;;;;;6.47;1.92;;;8.80;99.70;;;;;;4934190;28;20051;-85
2023/04/04 11:21:01;;;;;;;6.63;2.13;;;8.90;99.90;;;;;;4927029;28;20055;-86
2023/04/04 11:23:37;;;;;;;6.20;1.85;;;9.00;99.90;;;;;;4950411;28;20061;-85
2023/04/04 11:26:07;;;;;;;9.43;2.10;;;9.00;99.90;;;;;;4934632;28;20515;-86
2023/04/04 11:28:32;;;;;;;6.38;2.47;;;9.10;99.40;;;;;;4922927;28;20057;-85
2023/04/04 11:31:15;;;;;;;4.05;1.88;;;9.20;99.60;;;;;;4934240;28;20059;-85
2023/04/04 11:34:06;;;;;;;8.50;1.98;;;9.30;99.60;;;;;;4929149;29;20872;-85
2023/04/04 11:36:35;;;;;;;8.25;2.50;;;9.40;99.30;;;;;;4949763;28;20838;-86
2023/04/04 11:39:07;;;;;;;8.13;2.05;;;9.40;99.20;;;;;;4935984;28;20156;-86
2023/04/04 11:41:49;;;;;;;9.20;2.10;;;9.40;98.60;;;;;;4939508;28;20054;-86
2023/04/04 11:44:16;;;;;;;6.28;2.03;;;9.40;98.20;;;;;;4935261;28;20054;-86
2023/04/04 11:46:42;;;;;;;7.95;2.13;;;9.50;98.50;;;;;;4935379;28;20046;-86
2023/04/04 11:49:09;;;;;;;7.03;2.00;;;9.50;98.20;;;;;;4935176;28;20047;-86
2023/04/04 11:51:36;;;;;;;7.32;2.10;;;9.50;98.30;;;;;;4952820;28;20399;-89
2023/04/04 11:54:02;;;;;;;6.47;1.98;;;9.60;98.30;;;;;;4938724;28;20050;-87
2023/04/04 11:56:33;;;;;;;3.90;1.50;;;8.90;97.60;;;;;;4938683;28;20383;-86
2023/04/04 11:59:02;;;;;;;9.38;2.30;;;9.60;97.30;;;;;;4952852;28;20121;-85
2023/04/04 12:01:28;;;;;;;5.88;2.28;;;9.70;97.10;;;;;;4938663;28;20086;-86
2023/04/04 12:03:53;;;;;;;4.38;1.88;;;9.60;96.40;;;;;;4938237;28;20118;-86
2023/04/04 12:06:19;;;;;;;6.25;2.05;;;9.60;95.90;;;;;;4936705;28;20126;-86
2023/04/04 12:08:45;;;;;;;6.10;2.20;;;9.60;95.80;;;;;;4954019;28;20054;-86
2023/04/04 12:11:14;;;;;;;6.38;2.00;;;9.60;95.60;;;;;;4937127;28;20059;-86
2023/04/04 12:13:43;;;;;;;6.05;2.15;;;9.60;95.90;;;;;;4938010;28;20050;-86
2023/04/04 12:16:09;;;;;;;6.20;2.05;;;9.70;95.60;;;;;;4938003;28;20134;-86
2023/04/04 12:18:36;;;;;;;8.77;2.22;;;9.80;95.90;;;;;;4937335;28;20042;-85
2023/04/04 12:21:02;;;;;;;5.53;2.05;;;9.80;95.70;;;;;;4952846;28;20042;-85
2023/04/04 12:23:33;;;;;;;7.57;2.20;;;9.80;94.70;;;;;;4938628;28;20455;-86
2023/04/04 12:26:02;;;;;;;24.17;14.27;;;9.80;95.20;;;;;;4937095;28;20047;-86
2023/04/04 12:28:31;;;;;;;11.60;4.38;;;9.80;95.30;;;;;;4937705;28;20055;-86
2023/04/04 12:31:04;;;;;;;5.70;2.30;;;9.90;95.30;;;;;;4937511;28;20394;-86
2023/04/04 12:33:32;;;;;;;172.02;53.70;;;9.90;95.20;;;;;;4953009;28;20061;-86
2023/04/04 12:35:59;;;;;;;9.02;3.00;;;9.80;95.10;;;;;;4936994;28;20055;-86
2023/04/04 12:38:25;;;;;;;8.40;2.78;;;9.90;94.70;;;;;;4937674;28;20478;-86
2023/04/04 12:40:51;;;;;;;7.53;2.50;;;9.80;94.50;;;;;;4952356;28;20473;-87
2023/04/04 12:43:19;;;;;;;7.25;1.98;;;9.60;93.80;;;;;;4954014;28;20591;-87
2023/04/04 12:45:45;;;;;;;6.80;2.72;;;9.50;93.30;;;;;;4937147;28;20079;-85
2023/04/04 12:48:13;;;;;;;7.80;2.67;;;9.40;93.10;;;;;;4937351;28;20050;-86
2023/04/04 12:50:52;;;;;;;6.47;2.55;;;9.40;93.20;;;;;;4952750;28;20201;-86